createdAt,value
2022-09-16T00:01:54.793Z,14.10
2022-09-16T00:04:23.251Z,14.10
2022-09-16T00:06:51.733Z,14.10
2022-09-16T00:09:20.522Z,14.10
2022-09-16T00:11:49.106Z,14.10
2022-09-16T00:14:17.588Z,14.10
2022-09-16T00:16:46.131Z,14.10
2022-09-16T00:19:14.757Z,14.10
2022-09-16T00:21:43.241Z,14.00
2022-09-16T00:24:14.384Z,14.00
2022-09-16T00:26:43.954Z,13.90
2022-09-16T00:29:12.474Z,13.90
2022-09-16T00:31:41.003Z,13.90
2022-09-16T00:34:09.541Z,13.90
2022-09-16T00:36:38.022Z,13.90
2022-09-16T00:39:06.350Z,13.90
2022-09-16T00:41:34.806Z,13.90
2022-09-16T00:45:18.632Z,13.90
2022-09-16T00:48:01.450Z,13.90
2022-09-16T00:50:40.832Z,13.80
2022-09-16T00:53:16.250Z,13.80
2022-09-16T00:55:45.634Z,13.84
2022-09-16T00:58:31.423Z,13.88
2022-09-16T01:01:00.451Z,13.80
2022-09-16T01:03:31.913Z,13.80
2022-09-16T01:06:00.439Z,13.80
2022-09-16T01:08:29.038Z,13.70
2022-09-16T01:10:58.337Z,13.70
2022-09-16T01:13:26.922Z,13.70
2022-09-16T01:16:17.401Z,13.60
2022-09-16T01:19:20.207Z,13.60
2022-09-16T01:22:08.044Z,13.60
2022-09-16T01:24:58.337Z,13.60
2022-09-16T01:27:44.759Z,13.52
2022-09-16T01:30:50.906Z,13.50
2022-09-16T01:33:47.342Z,13.50
2022-09-16T01:36:44.294Z,13.50
2022-09-16T01:40:03.001Z,13.40
2022-09-16T01:42:57.954Z,13.40
2022-09-16T01:45:43.028Z,13.40
2022-09-16T01:48:25.536Z,13.34
2022-09-16T01:51:19.619Z,13.30
2022-09-16T01:54:14.110Z,13.30
2022-09-16T01:56:48.429Z,13.30
2022-09-16T01:59:29.405Z,13.22
2022-09-16T02:02:15.974Z,13.20
2022-09-16T02:04:51.470Z,13.20
2022-09-16T02:07:25.365Z,13.20
2022-09-16T02:10:01.630Z,13.10
2022-09-16T02:12:35.027Z,13.00
2022-09-16T02:15:11.702Z,13.00
2022-09-16T02:17:45.534Z,13.00
2022-09-16T02:20:20.460Z,12.98
2022-09-16T02:22:56.404Z,12.90
2022-09-16T02:25:26.114Z,12.90
2022-09-16T02:27:54.799Z,12.80
2022-09-16T02:30:24.206Z,12.80
2022-09-16T02:33:02.925Z,12.80
2022-09-16T02:35:34.666Z,12.80
2022-09-16T02:38:12.590Z,12.72
2022-09-16T02:40:59.909Z,12.70
2022-09-16T02:43:29.768Z,12.70
2022-09-16T02:46:35.225Z,12.60
2022-09-16T02:49:43.434Z,12.60
2022-09-16T02:52:24.858Z,12.50
2022-09-16T02:55:33.600Z,12.50
2022-09-16T02:58:02.183Z,12.50
2022-09-16T03:00:35.643Z,12.40
2022-09-16T03:03:04.439Z,12.40
2022-09-16T03:05:33.153Z,12.40
2022-09-16T03:08:07.273Z,12.40
2022-09-16T03:10:44.943Z,12.40
2022-09-16T03:13:30.144Z,12.32
2022-09-16T03:16:29.754Z,12.30
2022-09-16T03:19:22.812Z,12.30
2022-09-16T03:22:21.713Z,12.30
2022-09-16T03:26:01.460Z,12.30
2022-09-16T03:29:36.710Z,12.30
2022-09-16T03:32:08.878Z,12.20
2022-09-16T03:34:53.237Z,12.20
2022-09-16T03:37:24.800Z,12.20
2022-09-16T03:39:59.245Z,12.20
2022-09-16T03:42:28.200Z,12.20
2022-09-16T03:44:57.603Z,12.10
2022-09-16T03:47:26.709Z,12.10
2022-09-16T03:49:55.626Z,12.10
2022-09-16T03:52:24.695Z,12.00
2022-09-16T03:54:53.599Z,12.00
2022-09-16T03:57:22.264Z,12.00
2022-09-16T03:59:51.261Z,12.00
2022-09-16T04:02:20.126Z,12.00
2022-09-16T04:04:48.839Z,12.00
2022-09-16T04:07:17.423Z,12.00
2022-09-16T04:09:46.329Z,12.00
2022-09-16T04:12:15.911Z,12.00
2022-09-16T04:14:44.815Z,12.00
2022-09-16T04:17:13.279Z,12.00
2022-09-16T04:19:42.091Z,12.00
2022-09-16T04:22:10.776Z,12.00
2022-09-16T04:24:39.661Z,12.00
2022-09-16T04:27:08.252Z,12.00
2022-09-16T04:29:37.245Z,12.00
2022-09-16T04:32:05.968Z,12.00
2022-09-16T04:34:34.520Z,12.00
2022-09-16T04:37:03.819Z,12.00
2022-09-16T04:39:33.124Z,12.02
2022-09-16T04:42:01.599Z,12.00
2022-09-16T04:44:30.593Z,12.10
2022-09-16T04:46:59.394Z,12.10
2022-09-16T04:49:28.171Z,12.18
2022-09-16T04:51:57.779Z,12.20
2022-09-16T04:54:26.398Z,12.20
2022-09-16T04:56:54.950Z,12.20
2022-09-16T04:59:23.843Z,12.20
2022-09-16T05:01:52.733Z,12.30
2022-09-16T05:04:21.727Z,12.30
2022-09-16T05:06:50.732Z,12.34
2022-09-16T05:09:23.399Z,12.34
2022-09-16T05:11:52.308Z,12.40
2022-09-16T05:14:20.993Z,12.40
2022-09-16T05:16:49.974Z,12.40
2022-09-16T05:19:19.273Z,12.48
2022-09-16T05:21:47.756Z,12.50
2022-09-16T05:24:16.340Z,12.60
2022-09-16T05:26:45.351Z,12.70
2022-09-16T05:29:16.996Z,12.70
2022-09-16T05:31:51.004Z,12.70
2022-09-16T05:34:25.392Z,12.80
2022-09-16T05:36:54.827Z,12.80
2022-09-16T05:39:25.477Z,12.90
2022-09-16T05:41:59.735Z,13.00
2022-09-16T05:44:29.756Z,13.20
2022-09-16T05:46:58.380Z,13.30
2022-09-16T05:49:27.478Z,13.48
2022-09-16T05:51:56.728Z,13.60
2022-09-16T05:54:25.642Z,13.86
2022-09-16T05:56:54.460Z,14.10
2022-09-16T05:59:24.478Z,14.46
2022-09-16T06:01:53.640Z,14.82
2022-09-16T06:04:22.366Z,14.90
2022-09-16T06:06:51.049Z,14.90
2022-09-16T06:09:25.073Z,14.90
2022-09-16T06:12:01.492Z,14.70
2022-09-16T06:14:31.553Z,14.60
2022-09-16T06:17:00.235Z,14.60
2022-09-16T06:19:29.063Z,14.50
2022-09-16T06:21:57.608Z,14.50
2022-09-16T06:24:26.194Z,14.50
2022-09-16T06:26:54.675Z,14.50
2022-09-16T06:29:23.157Z,14.58
2022-09-16T06:31:51.743Z,14.60
2022-09-16T06:34:20.328Z,14.60
2022-09-16T06:36:49.031Z,14.60
2022-09-16T06:39:17.802Z,14.56
2022-09-16T06:41:52.235Z,14.60
2022-09-16T06:44:24.597Z,14.56
2022-09-16T06:46:53.183Z,14.50
2022-09-16T06:49:21.869Z,14.62
2022-09-16T06:51:51.987Z,14.84
2022-09-16T06:54:20.985Z,15.18
2022-09-16T06:56:49.874Z,15.68
2022-09-16T06:59:18.361Z,16.10
2022-09-16T07:01:46.890Z,16.40
2022-09-16T07:04:15.646Z,16.30
2022-09-16T07:09:35.222Z,16.00
2022-09-16T07:12:04.524Z,15.90
2022-09-16T07:14:33.107Z,16.20
2022-09-16T07:17:02.596Z,16.40
2022-09-16T07:19:31.301Z,16.54
2022-09-16T07:21:59.783Z,17.78
2022-09-16T07:24:28.265Z,18.58
2022-09-16T07:26:56.767Z,19.50
2022-09-16T07:29:25.438Z,19.10
2022-09-16T07:31:54.017Z,18.80
2022-09-16T07:34:22.704Z,19.30
2022-09-16T07:36:51.289Z,19.80
2022-09-16T07:39:21.550Z,19.64
2022-09-16T07:41:50.198Z,19.30
2022-09-16T07:44:21.018Z,18.90
2022-09-16T07:46:51.571Z,18.50
2022-09-16T07:49:21.378Z,18.20
2022-09-16T07:51:50.373Z,18.00
2022-09-16T07:54:20.595Z,17.80
2022-09-16T07:56:49.425Z,17.60
2022-09-16T07:59:20.558Z,17.50
2022-09-16T08:01:50.725Z,17.42
2022-09-16T08:04:21.108Z,17.68
2022-09-16T08:06:51.744Z,18.04
2022-09-16T08:09:38.596Z,19.32
2022-09-16T08:12:11.222Z,19.60
2022-09-16T08:14:39.893Z,19.50
2022-09-16T08:17:08.579Z,18.90
2022-09-16T08:19:38.798Z,18.42
2022-09-16T08:22:07.695Z,18.54
2022-09-16T08:24:36.197Z,19.80
2022-09-16T08:27:05.071Z,19.56
2022-09-16T08:29:33.755Z,20.18
2022-09-16T08:32:03.018Z,20.48
2022-09-16T08:34:31.536Z,20.76
2022-09-16T08:37:00.015Z,21.06
2022-09-16T08:39:28.498Z,20.60
2022-09-16T08:42:28.218Z,20.68
2022-09-16T08:45:35.891Z,20.60
2022-09-16T08:48:35.633Z,20.24
2022-09-16T08:51:06.486Z,19.90
2022-09-16T08:54:13.255Z,19.92
2022-09-16T08:56:44.985Z,20.60
2022-09-16T08:59:20.766Z,20.20
2022-09-16T09:02:09.737Z,19.90
2022-09-16T09:04:38.926Z,19.46
2022-09-16T09:07:55.230Z,19.30
2022-09-16T09:10:32.523Z,19.30
2022-09-16T09:13:14.183Z,19.02
2022-09-16T09:15:56.822Z,18.80
2022-09-16T09:18:30.940Z,18.60
2022-09-16T09:21:33.517Z,19.00
2022-09-16T09:24:18.082Z,18.80
2022-09-16T09:27:04.080Z,19.00
2022-09-16T09:29:50.730Z,19.00
2022-09-16T09:33:00.850Z,18.90
2022-09-16T09:35:54.406Z,18.76
2022-09-16T09:38:35.074Z,18.60
2022-09-16T09:41:15.127Z,18.20
2022-09-16T09:44:10.130Z,18.18
2022-09-16T09:46:45.362Z,18.30
2022-09-16T09:49:50.835Z,18.40
2022-09-16T09:52:36.620Z,18.70
2022-09-16T09:55:28.198Z,19.20
2022-09-16T09:58:00.812Z,19.10
2022-09-16T10:00:29.600Z,19.10
2022-09-16T10:03:16.938Z,19.10
2022-09-16T10:05:47.766Z,19.10
2022-09-16T10:08:46.537Z,18.90
2022-09-16T10:11:31.431Z,18.64
2022-09-16T10:14:02.923Z,18.50
2022-09-16T10:16:37.673Z,18.52
2022-09-16T10:19:09.562Z,19.16
2022-09-16T10:21:47.981Z,19.60
2022-09-16T10:24:57.626Z,19.50
2022-09-16T10:27:36.656Z,19.50
2022-09-16T10:30:16.280Z,19.30
2022-09-16T10:32:59.219Z,19.36
2022-09-16T10:35:34.118Z,19.98
2022-09-16T10:38:12.976Z,20.72
2022-09-16T10:41:06.649Z,20.90
2022-09-16T10:43:38.346Z,20.80
2022-09-16T10:46:08.130Z,20.64
2022-09-16T10:48:37.317Z,20.40
2022-09-16T10:51:16.756Z,20.30
2022-09-16T10:53:53.418Z,20.30
2022-09-16T10:56:47.103Z,20.34
2022-09-16T10:59:16.626Z,20.40
2022-09-16T11:02:29.643Z,20.40
2022-09-16T11:05:10.000Z,20.40
2022-09-16T11:07:47.809Z,20.30
2022-09-16T11:11:11.834Z,20.50
2022-09-16T11:14:34.432Z,20.66
2022-09-16T11:17:41.213Z,20.90
2022-09-16T11:20:56.594Z,21.00
2022-09-16T11:24:14.028Z,20.48
2022-09-16T11:27:16.403Z,20.08
2022-09-16T11:30:13.863Z,19.70
2022-09-16T11:33:20.850Z,19.50
2022-09-16T11:36:13.605Z,19.54
2022-09-16T11:39:06.562Z,19.90
2022-09-16T11:42:13.341Z,20.10
2022-09-16T11:45:03.732Z,20.20
2022-09-16T11:47:40.822Z,20.40
2022-09-16T11:50:34.709Z,20.70
2022-09-16T11:53:33.785Z,20.90
2022-09-16T11:56:22.856Z,20.90
2022-09-16T11:59:10.820Z,20.90
2022-09-16T12:01:58.482Z,21.00
2022-09-16T12:05:04.199Z,21.10
2022-09-16T12:07:49.562Z,21.40
2022-09-16T12:10:40.010Z,21.50
2022-09-16T12:13:24.822Z,21.60
2022-09-16T12:15:59.921Z,21.50
2022-09-16T12:18:33.358Z,21.40
2022-09-16T12:21:14.351Z,21.20
2022-09-16T12:23:48.658Z,21.20
2022-09-16T12:26:23.482Z,21.20
2022-09-16T12:29:02.409Z,21.10
2022-09-16T12:32:00.895Z,21.10
2022-09-16T12:34:45.149Z,21.26
2022-09-16T12:37:50.658Z,21.20
2022-09-16T12:41:01.677Z,21.30
2022-09-16T12:43:36.200Z,21.40
2022-09-16T12:46:23.291Z,21.40
2022-09-16T12:49:16.074Z,21.30
2022-09-16T12:51:50.492Z,21.16
2022-09-16T12:55:23.653Z,21.10
2022-09-16T12:58:12.654Z,21.10
2022-09-16T13:01:15.082Z,21.00
2022-09-16T13:03:52.626Z,21.00
2022-09-16T13:06:30.193Z,21.00
2022-09-16T13:09:14.887Z,21.00
2022-09-16T13:14:51.801Z,20.90
2022-09-16T13:17:39.927Z,20.70
2022-09-16T13:20:33.739Z,20.58
2022-09-16T13:23:14.779Z,20.50
2022-09-16T13:25:59.443Z,20.70
2022-09-16T13:28:35.501Z,20.80
2022-09-16T13:31:19.016Z,20.70
2022-09-16T13:34:15.988Z,20.70
2022-09-16T13:36:44.877Z,20.70
2022-09-16T13:39:28.208Z,20.60
2022-09-16T13:41:57.401Z,20.20
2022-09-16T13:44:38.785Z,19.90
2022-09-16T13:47:09.930Z,19.80
2022-09-16T13:49:54.816Z,19.70
2022-09-16T13:52:33.934Z,19.60
2022-09-16T13:55:10.917Z,19.50
2022-09-16T13:58:03.147Z,19.40
2022-09-16T14:00:46.991Z,19.30
2022-09-16T14:03:34.364Z,19.20
2022-09-16T14:06:40.581Z,19.20
2022-09-16T14:09:14.901Z,19.20
2022-09-16T14:11:58.538Z,19.20
2022-09-16T14:14:47.326Z,19.38
2022-09-16T14:17:51.494Z,19.62
2022-09-16T14:20:23.850Z,19.74
2022-09-16T14:23:19.449Z,19.90
2022-09-16T14:25:49.343Z,19.78
2022-09-16T14:28:22.721Z,19.50
2022-09-16T14:30:59.453Z,19.30
2022-09-16T14:33:34.155Z,19.14
2022-09-16T14:36:18.578Z,19.02
2022-09-16T14:39:12.868Z,18.90
2022-09-16T14:41:53.543Z,18.80
2022-09-16T14:44:32.212Z,18.80
2022-09-16T14:47:09.309Z,18.80
2022-09-16T14:49:42.942Z,18.80
2022-09-16T14:52:32.495Z,18.80
2022-09-16T14:55:01.718Z,18.90
2022-09-16T14:57:33.617Z,19.00
2022-09-16T15:00:16.088Z,18.90
2022-09-16T15:02:53.328Z,18.90
2022-09-16T15:05:33.534Z,18.80
2022-09-16T15:08:34.291Z,18.80
2022-09-16T15:11:29.921Z,18.80
2022-09-16T15:14:08.815Z,18.66
2022-09-16T15:17:04.130Z,18.50
2022-09-16T15:19:40.086Z,18.40
2022-09-16T15:22:14.723Z,18.34
2022-09-16T15:24:44.217Z,18.30
2022-09-16T15:27:20.685Z,18.28
2022-09-16T15:29:56.785Z,18.30
2022-09-16T15:32:29.785Z,18.22
2022-09-16T15:35:28.724Z,18.20
2022-09-16T15:37:57.212Z,18.20
2022-09-16T15:40:28.735Z,18.20
2022-09-16T15:43:28.187Z,18.10
2022-09-16T15:46:16.437Z,18.10
2022-09-16T15:48:51.303Z,18.00
2022-09-16T15:51:29.389Z,18.00
2022-09-16T15:54:22.726Z,18.00
2022-09-16T15:57:32.784Z,18.00
2022-09-16T16:00:12.683Z,18.00
2022-09-16T16:02:59.277Z,18.00
2022-09-16T16:05:31.444Z,18.02
2022-09-16T16:08:09.626Z,18.18
2022-09-16T16:10:40.282Z,18.20
2022-09-16T16:13:09.036Z,18.30
2022-09-16T16:15:40.289Z,18.30
2022-09-16T16:18:10.846Z,18.12
2022-09-16T16:20:40.150Z,18.00
2022-09-16T16:23:09.362Z,17.90
2022-09-16T16:25:38.861Z,17.80
2022-09-16T16:28:08.094Z,17.74
2022-09-16T16:30:36.807Z,17.70
2022-09-16T16:33:08.365Z,17.70
2022-09-16T16:35:36.948Z,17.60
2022-09-16T16:38:05.882Z,17.60
2022-09-16T16:40:34.568Z,17.50
2022-09-16T16:43:03.108Z,17.50
2022-09-16T16:45:31.695Z,17.50
2022-09-16T16:48:00.794Z,17.40
2022-09-16T16:50:29.271Z,17.30
2022-09-16T16:52:57.753Z,17.20
2022-09-16T16:55:26.541Z,17.20
2022-09-16T16:57:55.061Z,17.10
2022-09-16T17:00:24.329Z,17.10
2022-09-16T17:02:52.839Z,17.00
2022-09-16T17:05:21.288Z,16.90
2022-09-16T17:07:49.770Z,16.90
2022-09-16T17:10:18.356Z,16.80
2022-09-16T17:12:46.838Z,16.70
2022-09-16T17:15:15.524Z,16.70
2022-09-16T17:17:44.638Z,16.60
2022-09-16T17:20:13.207Z,16.60
2022-09-16T17:22:41.892Z,16.56
2022-09-16T17:25:10.477Z,16.50
2022-09-16T17:27:38.958Z,16.50
2022-09-16T17:30:08.601Z,16.50
2022-09-16T17:32:37.460Z,16.50
2022-09-16T17:35:07.374Z,16.50
2022-09-16T17:37:37.807Z,16.40
2022-09-16T17:40:07.589Z,16.30
2022-09-16T17:42:36.104Z,16.30
2022-09-16T17:45:06.954Z,16.28
2022-09-16T17:47:36.135Z,16.22
2022-09-16T17:50:05.742Z,16.20
2022-09-16T17:52:34.224Z,16.10
2022-09-16T17:55:02.705Z,16.04
2022-09-16T17:57:33.502Z,16.00
2022-09-16T18:00:06.796Z,15.80
2022-09-16T18:02:40.697Z,15.80
2022-09-16T18:05:09.619Z,15.70
2022-09-16T18:07:38.335Z,15.60
2022-09-16T18:10:07.227Z,15.60
2022-09-16T18:12:35.698Z,15.50
2022-09-16T18:15:05.204Z,15.46
2022-09-16T18:17:33.687Z,15.40
2022-09-16T18:20:06.942Z,15.40
2022-09-16T18:22:35.873Z,15.30
2022-09-16T18:25:05.878Z,15.30
2022-09-16T18:27:34.476Z,15.20
2022-09-16T18:30:03.984Z,15.20
2022-09-16T18:32:32.465Z,15.10
2022-09-16T18:35:01.047Z,15.10
2022-09-16T18:37:29.631Z,15.10
2022-09-16T18:39:58.180Z,15.10
2022-09-16T18:42:26.800Z,15.06
2022-09-16T18:44:55.693Z,15.00
2022-09-16T18:47:24.277Z,15.00
2022-09-16T18:49:52.758Z,14.90
2022-09-16T18:52:21.343Z,14.80
2022-09-16T18:54:49.825Z,14.76
2022-09-16T18:57:18.307Z,14.70
2022-09-16T18:59:46.890Z,14.70
2022-09-16T19:02:15.537Z,14.60
2022-09-16T19:04:44.162Z,14.60
2022-09-16T19:07:14.632Z,14.50
2022-09-16T19:09:45.121Z,14.50
2022-09-16T19:12:13.997Z,14.50
2022-09-16T19:14:42.700Z,14.40
2022-09-16T19:17:11.360Z,14.40
2022-09-16T19:19:39.976Z,14.38
2022-09-16T19:22:09.271Z,14.30
2022-09-16T19:24:38.674Z,14.30
2022-09-16T19:27:07.465Z,14.22
2022-09-16T19:29:36.613Z,14.20
2022-09-16T19:32:06.114Z,14.20
2022-09-16T19:34:35.372Z,14.20
2022-09-16T19:37:04.812Z,14.20
2022-09-16T19:39:34.279Z,14.10
2022-09-16T19:42:04.403Z,14.10
2022-09-16T19:44:33.392Z,14.02
2022-09-16T19:47:02.720Z,14.00
2022-09-16T19:49:31.406Z,13.98
2022-09-16T19:52:00.785Z,13.90
2022-09-16T19:54:30.149Z,13.90
2022-09-16T19:57:00.223Z,13.90
2022-09-16T19:59:29.119Z,13.90
2022-09-16T20:01:58.605Z,13.90
2022-09-16T20:04:27.391Z,13.90
2022-09-16T20:06:56.599Z,13.90
2022-09-16T20:09:26.373Z,13.90
2022-09-16T20:11:55.713Z,13.90
2022-09-16T20:14:24.705Z,13.80
2022-09-16T20:16:53.811Z,13.80
2022-09-16T20:19:22.388Z,13.80
2022-09-16T20:21:51.295Z,13.80
2022-09-16T20:24:23.375Z,13.80
2022-09-16T20:26:57.809Z,13.80
2022-09-16T20:29:26.652Z,13.72
2022-09-16T20:31:55.593Z,13.70
2022-09-16T20:34:24.601Z,13.70
2022-09-16T20:36:55.183Z,13.70
2022-09-16T20:39:24.180Z,13.70
2022-09-16T20:41:53.162Z,13.70
2022-09-16T20:44:22.424Z,13.70
2022-09-16T20:46:51.874Z,13.70
2022-09-16T20:49:23.258Z,13.70
2022-09-16T20:51:52.453Z,13.70
2022-09-16T20:54:21.716Z,13.76
2022-09-16T20:56:50.644Z,13.80
2022-09-16T20:59:20.705Z,13.78
2022-09-16T21:01:50.304Z,13.80
2022-09-16T21:04:21.311Z,13.80
2022-09-16T21:06:50.276Z,13.80
2022-09-16T21:09:19.504Z,13.80
2022-09-16T21:11:49.927Z,13.80
2022-09-16T21:14:21.780Z,13.80
2022-09-16T21:16:51.916Z,13.80
2022-09-16T21:19:20.764Z,13.80
2022-09-16T21:21:49.553Z,13.80
2022-09-16T21:24:18.344Z,13.80
2022-09-16T21:26:46.927Z,13.90
2022-09-16T21:29:20.401Z,13.90
2022-09-16T21:31:49.562Z,13.90
2022-09-16T21:34:21.284Z,13.90
2022-09-16T21:36:51.540Z,13.90
2022-09-16T21:39:21.221Z,13.90
2022-09-16T21:41:50.005Z,13.90
2022-09-16T21:44:18.815Z,13.98
2022-09-16T21:46:48.117Z,14.00
2022-09-16T21:49:25.875Z,14.00
2022-09-16T21:51:58.783Z,14.00
2022-09-16T21:54:28.290Z,14.00
2022-09-16T21:56:56.873Z,14.00
2022-09-16T21:59:25.473Z,14.00
2022-09-16T22:01:54.703Z,14.00
2022-09-16T22:04:26.120Z,14.00
2022-09-16T22:06:55.818Z,13.90
2022-09-16T22:09:25.426Z,13.90
2022-09-16T22:11:54.317Z,13.86
2022-09-16T22:14:23.004Z,13.80
2022-09-16T22:16:51.489Z,13.70
2022-09-16T22:19:20.582Z,13.60
2022-09-16T22:21:51.462Z,13.58
2022-09-16T22:24:21.730Z,13.50
2022-09-16T22:26:52.433Z,13.42
2022-09-16T22:29:20.977Z,13.30
2022-09-16T22:31:49.823Z,13.20
2022-09-16T22:34:18.642Z,13.10
2022-09-16T22:36:47.123Z,13.00
2022-09-16T22:39:18.512Z,12.90
2022-09-16T22:41:47.675Z,12.80
2022-09-16T22:44:16.619Z,12.72
2022-09-16T22:46:48.262Z,12.68
2022-09-16T22:49:17.214Z,12.60
2022-09-16T22:51:45.799Z,12.50
2022-09-16T22:54:16.066Z,12.50
2022-09-16T22:56:45.118Z,12.40
2022-09-16T22:59:19.971Z,12.40
2022-09-16T23:01:49.475Z,12.34
2022-09-16T23:04:18.709Z,12.30
2022-09-16T23:06:48.758Z,12.20
2022-09-16T23:09:17.973Z,12.20
2022-09-16T23:11:46.454Z,12.20
2022-09-16T23:14:25.074Z,12.16
2022-09-16T23:16:57.248Z,12.10
2022-09-16T23:19:25.728Z,12.10
2022-09-16T23:21:54.309Z,12.00
2022-09-16T23:24:23.507Z,11.94
2022-09-16T23:26:52.110Z,11.90
2022-09-16T23:29:20.882Z,11.90
2022-09-16T23:31:49.466Z,11.90
2022-09-16T23:34:22.266Z,11.90
2022-09-16T23:36:51.037Z,11.90
2022-09-16T23:39:19.738Z,11.90
2022-09-16T23:41:50.152Z,11.90
2022-09-16T23:44:19.454Z,11.90
2022-09-16T23:46:48.119Z,11.90
2022-09-16T23:49:20.618Z,11.82
2022-09-16T23:51:49.098Z,11.88
2022-09-16T23:54:17.989Z,11.90
2022-09-16T23:56:47.293Z,11.90
2022-09-16T23:59:15.876Z,11.90
